Stefan Junuzovic

Recruteur en chef - Rapid Wien
3 Déc 2028
Dimanche
Processus

Personnalité

Adaptabilité (9) Ambition (16) Controverse (2) Loyauté (9) Pression (19) Professionnalisme (15) Sportivité (3) Tempérament (16)

Profil

Style d'entraînement Démocratique
Diplôme Continental B
Détermination 7
Gestion des joueurs 10
Motivation 7
Discipline 8
Satisfaction professionnelle
100%
Fatigue
0%
Rôle Recruteur en chef
Salaire 86.6K p/s
Contrat 14.03.2030

Performance

Comportement Bon
Efficacité de l'entraînement
51%
Développement des joueurs
55%
Prévention des blessures
45%
Mise en place tactique
55%

Événements récents

A participé à une réunion de recrutement maintenant
A recommandé une cible de transfert maintenant
A recommandé une cible de transfert maintenant
A recommandé une cible de transfert maintenant
A recommandé une cible de transfert maintenant
A recommandé une cible de transfert 7j
A recommandé une cible de transfert 7j
A recommandé une cible de transfert 7j

Suivi en cours

231
Joueur Club Statut Capacité Confiance Observé Dernière observation Dernier vote
Simon Piesinger Sturm Graz Perdu 120 / 118 76% 1 21.08.2028 Approuver
Florian Wustinger Admira Wacker Actif 107 / 110 76% 1 10.07.2028 Approuver
Babis Kostoulas Oxford United Actif 147 / 154 40% 1 26.06.2028 -
Jay Stansfield Birmingham Actif 130 / 135 40% 1 26.06.2028 -
Mike-Steven Bähre Altach Actif 122 / 109 76% 1 19.06.2028 Approuver
Cheveyo Tsawa Club Brugge Actif 130 / 129 40% 1 19.06.2028 -
Ayden Heaven Portsmouth Actif 152 / 155 40% 2 12.06.2028 -
Tyler Fletcher Rotherham United Actif 117 / 126 40% 1 12.06.2028 -
Erik Kojzek Wolfsberger AC Perdu 125 / 126 76% 1 07.06.2028 -
Simone Suppa Virtus Verona Actif 82 / 90 40% 1 03.06.2028 -
Yusuf Maart SV Ried Perdu 121 / 122 76% 1 02.06.2028 -
Tyreece Campbell Charlton Athletic Perdu 129 / 124 40% 3 31.05.2028 -
Leo Castledine Middlesbrough Actif 134 / 136 40% 1 31.05.2028 -
Diego Mascardi Juventus Actif 138 / 149 40% 3 28.05.2028 -
Dylan Moody Cheltenham Town Actif 122 / 124 40% 4 28.05.2028 -
Raúl Duran Real Madrid Actif 89 / 98 40% 1 26.05.2028 -
Thiago Sabella Banfield Actif 102 / 107 40% 1 26.05.2028 -
Leon Klanac Bayern Munich Actif 104 / 110 40% 4 25.05.2028 -
Marcello Trippel Borussia Mönchengladbach Actif 103 / 105 40% 4 24.05.2028 -
Álvaro Busso Vélez Actif 114 / 120 40% 1 24.05.2028 -
Sam Proctor Salford City Actif 123 / 135 40% 5 23.05.2028 -
Andrey Tsitsilin Baltika Actif 83 / 84 40% 1 23.05.2028 -
Gerardo Díaz San Martín SJ Actif 97 / 116 40% 3 22.05.2028 -
Woody Williamson Accrington Stanley Actif 108 / 111 40% 3 22.05.2028 -
Lautaro Vera Platense Actif 101 / 98 40% 2 16.05.2028 -
Takalani Mazhamba Kaizer Chiefs Actif 104 / 92 40% 1 11.05.2028 -
Agustín Martínez Cádiz Actif 97 / 112 40% 2 09.05.2028 -
Joel Abregu Temperley Actif 82 / 94 40% 1 07.05.2028 -
Jack Wint Sibenik Actif 103 / 114 40% 2 05.05.2028 -
Diego Bolaños Veracruz Actif 90 / 100 40% 2 04.05.2028 -
Fernando Bravo Almería Actif 109 / 110 40% 1 04.05.2028 -
Yegor Koshkin Pobeda Actif 89 / 89 40% 1 25.04.2028 -
Ramiro Buratti River Plate Actif 101 / 99 40% 1 25.04.2028 -
Samuel Atehortúa Deportivo Pereira Actif 81 / 88 40% 1 24.04.2028 -
Dylan Martínez River Plate Actif 103 / 96 40% 1 22.04.2028 -
Bark Abdramane AS PSI Actif 82 / 95 40% 4 19.04.2028 -
Robert Cook Accrington Stanley Actif 109 / 115 40% 3 19.04.2028 -
Martín Díaz Lanús Actif 98 / 89 40% 1 18.04.2028 -
Máximo Núñez Los Andes Actif 97 / 101 40% 1 18.04.2028 -
Tobías Pantoja Central Norte Actif 103 / 108 40% 2 17.04.2028 -
Jorge Sánchez Carabobo Actif 95 / 104 40% 1 11.04.2028 -
Thiago Perruisset Boca Juniors Actif 99 / 97 40% 1 07.04.2028 -
Josh Acheampong Everton Actif 146 / 144 40% 1 25.01.2028 -
Fodé Sylla Sion Actif 115 / 134 40% 2 11.01.2028 -
Gabe Forsyth Colchester United Actif 106 / 119 40% 1 03.01.2028 -
Alex Verón Vélez Actif 119 / 124 40% 1 03.01.2028 -
Otto Stange Borussia Mönchengladbach Actif 125 / 132 40% 1 03.01.2028 -
Bitello Universidad de Chile Actif 135 / 135 68% 1 01.01.2028 Approuver
Christos Mouzakitis Hull City Actif 138 / 135 40% 2 31.12.2027 -
Giovanni Leoni Lincoln City Actif 138 / 146 40% 1 31.12.2027 -
Ben Broggio Mansfield Town Actif 109 / 113 40% 1 30.12.2027 -
Gianluca Prestianni Benfica Actif 143 / 135 40% 1 30.12.2027 -
Leon Grgić Werder Bremen Actif 132 / 143 40% 1 28.12.2027 -
Chimobi Igwilo Rangers International Actif 84 / 98 40% 1 28.12.2027 -
Dilan Godoy Beitar Jerusalem Actif 120 / 119 40% 1 28.12.2027 -
Jeremías Merlo Gimnasia La Plata Actif 119 / 130 40% 2 27.12.2027 -
Emmanuel Ndubueze Shooting Stars Actif 90 / 105 40% 3 27.12.2027 -
Ruben Ramos LA Galaxy Actif 94 / 116 40% 1 26.12.2027 -
Bazoumana Touré Newcastle United Actif 144 / 141 40% 1 25.12.2027 -
Matias Siltanen Malmo FF Actif 123 / 120 40% 5 23.12.2027 -
Luka Andrade Montevideo City Torque Actif 105 / 107 40% 3 22.12.2027 -
Idris Ajiya Nasarawa United Actif 85 / 83 40% 2 22.12.2027 -
Honest Ahanor Atalanta Actif 136 / 139 40% 2 20.12.2027 -
Ryan Kavuma-McQueen Accrington Stanley Actif 120 / 132 40% 1 20.12.2027 -
Abdulrahman Hamisu Niger Tornadoes Actif 90 / 89 40% 1 18.12.2027 -
Nupe Godstime Bayelsa United Actif 91 / 99 40% 1 17.12.2027 -
Matías Arias Vélez Actif 115 / 113 40% 1 17.12.2027 -
Rio Ngumoha Plymouth Argyle Actif 139 / 141 40% 1 17.12.2027 -
Pedro Baltika Actif 137 / 135 40% 1 14.12.2027 -
Nicolás Barros Schelotto Gimnasia La Plata Actif 118 / 118 40% 1 14.12.2027 -
Joel Ezra Enyimba Actif 100 / 96 40% 2 13.12.2027 -
Rafael Moreno Atletico Venezuela Actif 110 / 105 40% 1 13.12.2027 -
Luighi Palmeiras Actif 112 / 122 40% 1 10.12.2027 -
Cole Campbell Borussia Dortmund Actif 129 / 138 40% 1 10.12.2027 -
Eli Junior Kroupi Bournemouth Actif 148 / 152 40% 1 09.12.2027 -
Olivier Mambwa Young Boys Actif 114 / 114 40% 2 08.12.2027 -
Victor Hernandez Santa Fe Actif 115 / 119 40% 6 08.12.2027 -
Luca Williams-Barnett Walsall Actif 124 / 139 40% 1 08.12.2027 -
Kerim Alajbegović Modena Actif 129 / 130 40% 1 06.12.2027 -
Diego Vargas Universidad de Concepcion Actif 94 / 93 40% 1 16.11.2027 -
Daniel Idoko Ikorodu City Actif 97 / 94 40% 2 12.11.2027 -
Matías Canedo Rampla Juniors Actif 79 / 85 40% 1 12.11.2027 -
Hosea Michael Remo Stars Actif 95 / 103 40% 1 11.11.2027 -
David Damboama El-Kanemi Warriors Actif 90 / 88 40% 3 09.11.2027 -
Caleb Yirenkyi Coventry City Actif 138 / 146 40% 1 09.11.2027 -
Lucas Bergvall Tottenham Actif 149 / 160 40% 1 06.11.2027 -
Colin Guske Orlando City Actif 104 / 102 40% 1 06.11.2027 -
Nazareno Roselli Defensa y Justicia Actif 120 / 113 40% 1 05.11.2027 -
Juan Camilo Córdoba Deportivo Pereira Actif 85 / 85 40% 1 01.11.2027 -
Kosta Nedeljković Aston Villa Actif 132 / 136 40% 1 11.10.2027 -
Edvard Pettersen Sandefjord Actif 100 / 113 40% 1 08.10.2027 -
Mats Rots TSG Hoffenheim Actif 121 / 128 40% 1 08.10.2027 -
Ignacio Fernández Boston River Actif 89 / 103 40% 1 07.10.2027 -
Nahuel Leivas Montevideo City Torque Actif 107 / 112 40% 1 06.10.2027 -
Ante Bajić SV Ried Actif 116 / 123 72% 1 19.07.2027 Approuver
Alexei Rojas Fedorushchenko Barrow AFC Actif 113 / 113 40% 1 08.07.2027 -
Sascha Britschgi AC Milan Actif 121 / 123 40% 1 01.06.2027 -
Mohamed-Ali Cho Hull City Actif 135 / 144 40% 6 31.05.2027 -
Brian Brobbey Sunderland Actif 141 / 135 40% 1 31.05.2027 -
Zian Flemming Ipswich Town Actif 134 / 140 40% 1 31.05.2027 -
Joel Bagan Cardiff City Actif 117 / 120 40% 2 30.05.2027 -
Dale Taylor Blackpool Actif 114 / 120 40% 3 30.05.2027 -
Ilyas Ansah Hull City Actif 133 / 134 40% 4 29.05.2027 -
André Wolverhampton Actif 145 / 138 40% 1 29.05.2027 -
Scott Twine Bristol City Actif 131 / 118 40% 6 28.05.2027 -
Malik Mothersille Stockport County Actif 121 / 117 40% 2 28.05.2027 -
Tyrese Campbell Sheffield United Actif 131 / 128 40% 2 27.05.2027 -
Jack Rudoni Coventry City Actif 139 / 128 40% 3 27.05.2027 -
Max Bird Birmingham Actif 132 / 126 40% 4 25.05.2027 -
Othmane Maamma Watford Actif 125 / 127 40% 3 25.05.2027 -
Samuele di Benedetto Twente Actif 116 / 119 40% 4 25.05.2027 -
Samuel Edozie Southampton Actif 134 / 127 40% 2 23.05.2027 -
Younes Ebnoutalib Eintracht Frankfurt Actif 134 / 140 40% 3 22.05.2027 -
Daniel Awuni Aduana Stars Actif 87 / 98 40% 3 22.05.2027 -
Miguel Figueiredo Benfica Actif 105 / 113 40% 1 22.05.2027 -
Mohamadou Kanté Crawley Town Actif 111 / 123 40% 3 20.05.2027 -
Martin Baturina Como Actif 145 / 140 40% 1 20.05.2027 -
Juan Bezerra Zamalek Actif 118 / 125 40% 2 19.05.2027 -
Derensili Sanches Fernandes Huddersfield Town Actif 121 / 131 40% 3 19.05.2027 -
Alex Robertson Cardiff City Actif 121 / 116 40% 2 19.05.2027 -
Luke Baartman Ajax Cape Town Actif 114 / 99 40% 1 19.05.2027 -
Naledi Hlongwane Wa All Stars Actif 94 / 92 40% 1 19.05.2027 -
Nicolò Zaniolo Udinese Actif 139 / 150 40% 2 18.05.2027 -
Oswin Appollis Orlando Pirates Actif 129 / 106 40% 2 18.05.2027 -
Tahith Chong Sheffield United Actif 126 / 119 40% 5 15.05.2027 -
Shea Charles Southampton Actif 141 / 133 40% 1 15.05.2027 -
Oston O'runov Persepolis Actif 114 / 106 40% 6 14.05.2027 -
Daniel Kyerewaa Reading Actif 119 / 106 40% 2 13.05.2027 -
Finn Azaz Southampton Actif 125 / 123 40% 3 12.05.2027 -
Milan van Ewijk Coventry City Actif 138 / 140 40% 3 12.05.2027 -
George Earthy Reading Actif 114 / 117 40% 1 12.05.2027 -
Dylan Levitt Leyton Orient Actif 114 / 122 40% 1 11.05.2027 -
Brooke Norton-Cuffy Hull City Actif 140 / 130 40% 2 09.05.2027 -
Joe Gelhardt Hull City Actif 131 / 140 40% 3 09.05.2027 -
Joseph Hungbo Wigan Athletic Actif 113 / 102 40% 2 08.05.2027 -
Tony Springett Cheltenham Town Actif 102 / 108 40% 4 07.05.2027 -
Adam Randell Bristol City Actif 125 / 121 40% 1 07.05.2027 -
Cian Ashford Cardiff City Actif 117 / 112 40% 6 06.05.2027 -
Rivaldo Mkhize Black Aces Actif 85 / 99 40% 1 05.05.2027 -
Mateus Mané Burnley Actif 131 / 149 40% 1 05.05.2027 -
Yannick Woudstra AFC Wimbledon Actif 99 / 107 40% 1 03.05.2027 -
Andre Brooks Sheffield United Actif 133 / 126 40% 3 01.05.2027 -
Rocco Vata Watford Actif 119 / 125 40% 1 01.05.2027 -
Paulo Cardoso Sporting CP Actif 94 / 96 40% 1 30.04.2027 -
Asanele Bonani Chippa United Actif 87 / 100 40% 1 30.04.2027 -
Jack McGlynn Stoke City Actif 131 / 127 40% 1 30.04.2027 -
Dennis Cirkin Queens Park Rangers Actif 133 / 124 40% 2 29.04.2027 -
Harry Clarke Preston Actif 124 / 130 40% 2 27.04.2027 -
Richard Koné Queens Park Rangers Actif 117 / 128 40% 1 26.04.2027 -
Lander Astiazarán Real Sociedad Actif 107 / 112 40% 2 23.04.2027 -
Ethan Williams Peterborough United Actif 110 / 116 40% 1 23.04.2027 -
Sindre Walle Egeli Udinese Actif 135 / 140 40% 2 22.04.2027 -
Araphat Mohammed Ashanti Gold Actif 104 / 114 40% 1 21.04.2027 -
Lucas Ferreira Shakhtar Actif 126 / 123 40% 1 19.04.2027 -
Jason Knight Bristol City Actif 127 / 129 40% 1 17.04.2027 -
Romelle Donovan Brentford Actif 115 / 135 40% 1 16.04.2027 -
Oscar Schwartau Norwich City Actif 117 / 126 40% 1 16.04.2027 -
Darlin Yongwa Norwich City Actif 127 / 121 40% 1 14.04.2027 -
Kwadwo Baah Watford Actif 123 / 130 40% 2 11.04.2027 -
Darragh Burns Grimsby Town Actif 95 / 92 40% 1 10.04.2027 -
Alexander Prass TSG Hoffenheim Actif 141 / 131 40% 1 09.04.2027 -
Stephen Amankona Aduana Stars Actif 100 / 91 40% 3 08.04.2027 -
Isaiah Jones Luton Town Actif 125 / 121 40% 1 06.04.2027 -
Eduardo Fernandes Benfica Actif 108 / 116 40% 1 06.04.2027 -
Gabriele Bertolini Vicenza Actif 99 / 102 40% 1 05.04.2027 -
Calum Agius Crewe Alexandra Actif 100 / 92 40% 1 05.04.2027 -
David Turnbull Cardiff City Actif 119 / 122 40% 1 01.04.2027 -
Bobby Clark Derby County Actif 123 / 133 40% 1 01.04.2027 -
Jacques Ekomié Wrexham Actif 135 / 122 40% 2 31.03.2027 -
Wandile Duba ASO Chlef Actif 106 / 115 40% 1 28.03.2027 -
Bosun Lawal Stoke City Actif 134 / 129 40% 2 26.03.2027 -
Ibrahim Bayesh Al Dhafra Actif 115 / 127 40% 1 25.03.2027 -
Giorgi Chakvetadze Watford Actif 127 / 127 40% 1 23.03.2027 -
Alex Lowry Wycombe Wanderers Actif 118 / 121 40% 1 21.03.2027 -
Max Johnston Derby County Actif 133 / 130 40% 2 20.03.2027 -
Mohau Nkota Al-Ettifaq Actif 124 / 121 40% 1 19.03.2027 -
Sam Greenwood Bristol City Actif 120 / 115 40% 1 15.03.2027 -
Jack Currie Oxford United Actif 121 / 120 40% 1 13.03.2027 -
Marquinhos Spartak Moscow Actif 126 / 118 40% 1 12.03.2027 -
Mohammad Mehdi Mohebi Persepolis Actif 129 / 106 40% 2 05.03.2027 -
Evan Eghosa SV Ried Actif 101 / 115 72% 1 03.01.2027 Approuver
Stanislav Agkatsev Brentford Actif 132 / 133 66% 1 01.01.2027 Approuver
Kenny Tete Fulham Actif 137 / 144 40% 1 01.01.2027 -
Amin Sarr Hellas Verona Actif 132 / 122 40% 1 31.12.2026 -
Marcelo Allende Mamelodi Sundowns Actif 127 / 116 40% 5 30.12.2026 -
Teboho Mokoena Mamelodi Sundowns Actif 130 / 136 40% 3 27.12.2026 -
Amine Adli Bournemouth Actif 150 / 152 40% 1 26.12.2026 -
Callum Brittain Middlesbrough Actif 133 / 133 40% 1 25.12.2026 -
Tyrhys Dolan Espanyol Actif 133 / 139 40% 3 22.12.2026 -
Billy Gilmour Napoli Actif 146 / 154 40% 1 17.12.2026 -
Steven Bergwijn Al-Ittihad Actif 149 / 140 40% 2 16.12.2026 -
Malcom Al Jazira Actif 152 / 136 40% 1 09.12.2026 -
Mohamed Camara Maccabi Tel Aviv Actif 140 / 137 40% 1 09.12.2026 -
Gedson Fernandes Spartak Moscow Actif 133 / 137 40% 1 09.12.2026 -
Carlos Augusto Inter Actif 144 / 151 40% 1 08.12.2026 -
Nikita Krivtsov Krasnodar Actif 126 / 138 40% 1 08.12.2026 -
Jordy Makengo SC Freiburg Actif 129 / 134 40% 2 07.12.2026 -
Morgan Billiat SuperSport United Actif 124 / 115 40% 4 04.12.2026 -
Pedrinho Shakhtar Actif 147 / 140 40% 2 04.12.2026 -
Marko Janković Qarabag Actif 119 / 131 40% 1 04.12.2026 -
Will Hughes Bloemfontein Celtic Actif 131 / 143 40% 1 04.12.2026 -
Jordan Lotomba Bloemfontein Celtic Actif 115 / 133 40% 1 04.12.2026 -
Edu Expósito Espanyol Actif 142 / 139 40% 1 24.11.2026 -
Kilian Fischer VfL Wolfsburg Actif 129 / 133 40% 1 24.11.2026 -
Metinho Basel Actif 131 / 140 40% 1 20.11.2026 -
Jens Petter Hauge Bodo/Glimt Actif 130 / 136 40% 2 19.11.2026 -
Reda Khadra Qarabag Actif 128 / 129 40% 2 13.11.2026 -
Galeno Al-Ahli Actif 144 / 139 40% 2 10.11.2026 -
Bernard Tekpetey Ludogorets Actif 121 / 122 40% 1 10.11.2026 -
Majid Jahanbakhsh Rah Ahan Actif 135 / 118 40% 1 08.11.2026 -
Bradley Zwane SuperSport United Actif 110 / 125 40% 1 07.11.2026 -
Martín Ojeda Orlando City Actif 124 / 129 40% 1 07.11.2026 -
Alexey Miranchuk Atlanta United FC Actif 148 / 136 40% 4 04.11.2026 -
Rodrigo De Paul Inter Miami CF Actif 147 / 154 40% 1 02.11.2026 -
Telasco Segovia Inter Miami CF Actif 127 / 134 40% 1 29.10.2026 -
Armstrong Oko-Flex Levski Actif 112 / 127 40% 1 25.10.2026 -
Ryan Gauld Vancouver Whitecaps Actif 129 / 132 40% 1 25.10.2026 -
João Cancelo Spartak Moscow Actif 156 / 134 40% 1 24.10.2026 -
Cristian Espinoza Nashville SC Actif 132 / 115 40% 3 23.10.2026 -
Joaquín Pereyra Minnesota United FC Actif 132 / 123 40% 2 23.10.2026 -
Manu Morlanes Mallorca Actif 134 / 128 40% 1 22.10.2026 -
Rogério VfL Wolfsburg Actif 128 / 116 40% 2 19.10.2026 -
Tadeo Allende Inter Miami CF Actif 122 / 125 40% 1 17.10.2026 -
Jordan Morris Seattle Sounders Actif 131 / 137 40% 1 14.10.2026 -
Antony Portland Timbers Actif 135 / 121 40% 1 13.10.2026 -
Jesus Ferreira Seattle Sounders Actif 131 / 132 40% 1 12.10.2026 -
Mehdi Hashemnejad Tractor Actif 111 / 120 40% 1 09.10.2026 -
Daniel Karlsbakk Sarpsborg 08 Actif 117 / 131 40% 1 05.10.2026 -
Christopher Martins Pereira Spartak Moscow Actif 131 / 133 40% 1 07.09.2026 -
Lucas Souto Defensa y Justicia Actif 119 / 122 40% 1 07.09.2026 -
Manfred Ugalde Spartak Moscow Actif 138 / 126 40% 1 31.08.2026 -